PWSweather.com
Personal Weather Stations
Station Observations
KFLSEBAS1
Sebastian Highlands, Sebastian, FL 32958-4362

Sebastian HighlandsSebastian, FL 32958-4362

Lat: 27.8, Lon: -80.48

Elevation: 23

Station Type: Davis Weather Monitor II

Latest ConditionsUpdated 11:15:15 PM EST Friday, Feb 23, 2018
Currently Today's Max Today's Min Today's Average
Temperature 73.5°F23.1°C 80.4°F26.9°C 72.5°F22.5°C 75.4°F24.1°C
Dew Point 68.4°F20.2°C 71.1°F21.7°C 67.0°F19.4°C 68.5°F20.3°C
Winds 3.0 mph ENE4.8 kmh ENE 16.0 mph ESE25.7 kmh ESE - 3.2 mph 5.1 kmh
Wind Gusts 13.0 mph20.9 kmh 19.0 mph30.6 kmh - -
Humidity 84% 88% 68% 80%
Pressure 30.29 in1025.7 mb 30.41 in1029.8 mb 30.29 in1025.7 mb -
Hour Temp Dew Point Humidity Winds Wind Gusts Pressure Precip Precip Rate Daily Precip Total
11:15 PM 73.5°F23.1°C 68.4°F20.2°C 84% 3.0 mph ENE4.8 kmh ENE 13.0 mph20.9 kmh 30.29 in1025.7 mb 0.00 in0.0 mm 0.00 in0.0 mm 0.00 in0.0 mm
11:10 PM 73.6°F23.1°C 68.5°F20.3°C 84% 4.0 mph E6.4 kmh E 13.0 mph20.9 kmh 30.29 in1025.7 mb 0.00 in0.0 mm 0.00 in0.0 mm 0.00 in0.0 mm
11:05 PM 73.7°F23.2°C 68.9°F20.5°C 85% Calm Calm 10.0 mph16.1 kmh 30.30 in1026.1 mb 0.00 in0.0 mm 0.00 in0.0 mm 0.00 in0.0 mm
11:00 PM 73.6°F23.1°C 68.8°F20.4°C 85% 3.0 mph E4.8 kmh E 3.0 mph4.8 kmh 30.30 in1026.1 mb 0.00 in0.0 mm 0.00 in0.0 mm 0.00 in0.0 mm
10:55 PM 73.6°F23.1°C 68.8°F20.4°C 85% 4.0 mph SE6.4 kmh SE 14.0 mph22.5 kmh 30.30 in1026.1 mb 0.00 in0.0 mm 0.00 in0.0 mm 0.00 in0.0 mm
10:50 PM 73.6°F23.1°C 68.5°F20.3°C 84% 3.0 mph E4.8 kmh E 14.0 mph22.5 kmh 30.30 in1026.1 mb 0.00 in0.0 mm 0.00 in0.0 mm 0.00 in0.0 mm
10:45 PM 73.6°F23.1°C 68.5°F20.3°C 84% 5.0 mph ESE8.0 kmh ESE 14.0 mph22.5 kmh 30.30 in1026.1 mb 0.00 in0.0 mm 0.00 in0.0 mm 0.00 in0.0 mm
10:40 PM 73.6°F23.1°C 68.1°F20.1°C 83% Calm Calm 14.0 mph22.5 kmh 30.30 in1026.1 mb 0.00 in0.0 mm 0.00 in0.0 mm 0.00 in0.0 mm
10:35 PM 73.7°F23.2°C 68.2°F20.1°C 83% 5.0 mph E8.0 kmh E 14.0 mph22.5 kmh 30.30 in1026.1 mb 0.00 in0.0 mm 0.00 in0.0 mm 0.00 in0.0 mm
10:30 PM 73.7°F23.2°C 68.6°F20.3°C 84% Calm Calm 14.0 mph22.5 kmh 30.30 in1026.1 mb 0.00 in0.0 mm 0.00 in0.0 mm 0.00 in0.0 mm
10:25 PM 73.6°F23.1°C 68.5°F20.3°C 84% 3.0 mph E4.8 kmh E 14.0 mph22.5 kmh 30.30 in1026.1 mb 0.00 in0.0 mm 0.00 in0.0 mm 0.00 in0.0 mm
10:20 PM 73.6°F23.1°C 68.1°F20.1°C 83% 6.0 mph E9.7 kmh E 14.0 mph22.5 kmh 30.30 in1026.1 mb 0.00 in0.0 mm 0.00 in0.0 mm 0.00 in0.0 mm
10:15 PM 73.6°F23.1°C 68.1°F20.1°C 83% 5.0 mph SE8.0 kmh SE 14.0 mph22.5 kmh 30.30 in1026.1 mb 0.00 in0.0 mm 0.00 in0.0 mm 0.00 in0.0 mm
10:10 PM 73.6°F23.1°C 68.1°F20.1°C 83% 6.0 mph SE9.7 kmh SE 14.0 mph22.5 kmh 30.30 in1026.1 mb 0.00 in0.0 mm 0.00 in0.0 mm 0.00 in0.0 mm
10:05 PM 73.6°F23.1°C 68.1°F20.1°C 83% 5.0 mph ESE8.0 kmh ESE 10.0 mph16.1 kmh 30.31 in1026.4 mb 0.00 in0.0 mm 0.00 in0.0 mm 0.00 in0.0 mm
10:00 PM 73.6°F23.1°C 68.1°F20.1°C 83% 4.0 mph SSE6.4 kmh SSE 5.0 mph8.0 kmh 30.31 in1026.4 mb 0.00 in0.0 mm 0.00 in0.0 mm 0.00 in0.0 mm
09:55 PM 73.6°F23.1°C 68.1°F20.1°C 83% 8.0 mph ESE12.9 kmh ESE 13.0 mph20.9 kmh 30.31 in1026.4 mb 0.00 in0.0 mm 0.00 in0.0 mm 0.00 in0.0 mm
09:50 PM 73.7°F23.2°C 68.2°F20.1°C 83% 3.0 mph ESE4.8 kmh ESE 13.0 mph20.9 kmh 30.31 in1026.4 mb 0.00 in0.0 mm 0.00 in0.0 mm 0.00 in0.0 mm
09:45 PM 73.7°F23.2°C 68.2°F20.1°C 83% Calm Calm 13.0 mph20.9 kmh 30.31 in1026.4 mb 0.00 in0.0 mm 0.00 in0.0 mm 0.00 in0.0 mm
09:40 PM 73.8°F23.2°C 68.3°F20.2°C 83% 7.0 mph ESE11.3 kmh ESE 13.0 mph20.9 kmh 30.31 in1026.4 mb 0.00 in0.0 mm 0.00 in0.0 mm 0.00 in0.0 mm
09:35 PM 73.8°F23.2°C 68.3°F20.2°C 83% 4.0 mph E6.4 kmh E 13.0 mph20.9 kmh 30.31 in1026.4 mb 0.00 in0.0 mm 0.00 in0.0 mm 0.00 in0.0 mm
09:30 PM 73.9°F23.3°C 68.8°F20.4°C 84% 5.0 mph E8.0 kmh E 13.0 mph20.9 kmh 30.31 in1026.4 mb 0.00 in0.0 mm 0.00 in0.0 mm 0.00 in0.0 mm
09:25 PM 73.9°F23.3°C 68.4°F20.2°C 83% 6.0 mph ESE9.7 kmh ESE 11.0 mph17.7 kmh 30.31 in1026.4 mb 0.00 in0.0 mm 0.00 in0.0 mm 0.00 in0.0 mm
09:20 PM 74.0°F23.3°C 68.5°F20.3°C 83% 3.0 mph E4.8 kmh E 10.0 mph16.1 kmh 30.32 in1026.8 mb 0.00 in0.0 mm 0.00 in0.0 mm 0.00 in0.0 mm
09:15 PM 74.0°F23.3°C 68.2°F20.1°C 82% 5.0 mph E8.0 kmh E 10.0 mph16.1 kmh 30.32 in1026.8 mb 0.00 in0.0 mm 0.00 in0.0 mm 0.00 in0.0 mm
09:10 PM 73.9°F23.3°C 68.8°F20.4°C 84% 3.0 mph ESE4.8 kmh ESE 10.0 mph16.1 kmh 30.32 in1026.8 mb 0.00 in0.0 mm 0.00 in0.0 mm 0.00 in0.0 mm
09:05 PM 73.9°F23.3°C 68.1°F20.1°C 82% Calm Calm 9.0 mph14.5 kmh 30.31 in1026.4 mb 0.00 in0.0 mm 0.00 in0.0 mm 0.00 in0.0 mm
09:00 PM 73.9°F23.3°C 68.4°F20.2°C 83% 6.0 mph E9.7 kmh E 6.0 mph9.7 kmh 30.31 in1026.4 mb 0.00 in0.0 mm 0.00 in0.0 mm 0.00 in0.0 mm
08:55 PM 74.0°F23.3°C 68.5°F20.3°C 83% 5.0 mph SE8.0 kmh SE 14.0 mph22.5 kmh 30.32 in1026.8 mb 0.00 in0.0 mm 0.00 in0.0 mm 0.00 in0.0 mm
08:50 PM 74.0°F23.3°C 68.2°F20.1°C 82% 2.0 mph ESE3.2 kmh ESE 13.0 mph20.9 kmh 30.32 in1026.8 mb 0.00 in0.0 mm 0.00 in0.0 mm 0.00 in0.0 mm
08:45 PM 74.1°F23.4°C 68.6°F20.3°C 83% Calm Calm 13.0 mph20.9 kmh 30.32 in1026.8 mb 0.00 in0.0 mm 0.00 in0.0 mm 0.00 in0.0 mm
08:40 PM 74.0°F23.3°C 69.9°F21.1°C 87% 8.0 mph E12.9 kmh E 13.0 mph20.9 kmh 30.32 in1026.8 mb 0.00 in0.0 mm 0.00 in0.0 mm 0.00 in0.0 mm
08:35 PM 74.1°F23.4°C 68.3°F20.2°C 82% 5.0 mph E8.0 kmh E 13.0 mph20.9 kmh 30.32 in1026.8 mb 0.00 in0.0 mm 0.00 in0.0 mm 0.00 in0.0 mm
08:30 PM 74.0°F23.3°C 68.9°F20.5°C 84% 6.0 mph E9.7 kmh E 13.0 mph20.9 kmh 30.32 in1026.8 mb 0.00 in0.0 mm 0.00 in0.0 mm 0.00 in0.0 mm
08:25 PM 74.0°F23.3°C 68.5°F20.3°C 83% 3.0 mph E4.8 kmh E 13.0 mph20.9 kmh 30.32 in1026.8 mb 0.00 in0.0 mm 0.00 in0.0 mm 0.00 in0.0 mm
08:20 PM 74.0°F23.3°C 68.2°F20.1°C 82% 2.0 mph E3.2 kmh E 13.0 mph20.9 kmh 30.32 in1026.8 mb 0.00 in0.0 mm 0.00 in0.0 mm 0.00 in0.0 mm
08:15 PM 74.1°F23.4°C 68.3°F20.2°C 82% 7.0 mph SE11.3 kmh SE 10.0 mph16.1 kmh 30.32 in1026.8 mb 0.00 in0.0 mm 0.00 in0.0 mm 0.00 in0.0 mm
08:10 PM 74.2°F23.4°C 68.4°F20.2°C 82% 4.0 mph E6.4 kmh E 10.0 mph16.1 kmh 30.32 in1026.8 mb 0.00 in0.0 mm 0.00 in0.0 mm 0.00 in0.0 mm
08:05 PM 74.3°F23.5°C 68.5°F20.3°C 82% 6.0 mph ESE9.7 kmh ESE 10.0 mph16.1 kmh 30.32 in1026.8 mb 0.00 in0.0 mm 0.00 in0.0 mm 0.00 in0.0 mm
08:00 PM 74.3°F23.5°C 68.5°F20.3°C 82% 6.0 mph ESE9.7 kmh ESE 6.0 mph9.7 kmh 30.32 in1026.8 mb 0.00 in0.0 mm 0.00 in0.0 mm 0.00 in0.0 mm
07:55 PM 74.3°F23.5°C 68.5°F20.3°C 82% 3.0 mph ESE4.8 kmh ESE 15.0 mph24.1 kmh 30.32 in1026.8 mb 0.00 in0.0 mm 0.00 in0.0 mm 0.00 in0.0 mm
07:50 PM 74.3°F23.5°C 68.8°F20.4°C 83% Calm Calm 15.0 mph24.1 kmh 30.32 in1026.8 mb 0.00 in0.0 mm 0.00 in0.0 mm 0.00 in0.0 mm
07:45 PM 74.4°F23.6°C 68.9°F20.5°C 83% 4.0 mph ESE6.4 kmh ESE 14.0 mph22.5 kmh 30.32 in1026.8 mb 0.00 in0.0 mm 0.00 in0.0 mm 0.00 in0.0 mm
07:40 PM 74.3°F23.5°C 68.5°F20.3°C 82% Calm Calm 14.0 mph22.5 kmh 30.32 in1026.8 mb 0.00 in0.0 mm 0.00 in0.0 mm 0.00 in0.0 mm
07:35 PM 74.3°F23.5°C 68.5°F20.3°C 82% 9.0 mph E14.5 kmh E 11.0 mph17.7 kmh 30.32 in1026.8 mb 0.00 in0.0 mm 0.00 in0.0 mm 0.00 in0.0 mm
07:30 PM 74.4°F23.6°C 68.2°F20.1°C 81% 9.0 mph E14.5 kmh E 11.0 mph17.7 kmh 30.32 in1026.8 mb 0.00 in0.0 mm 0.00 in0.0 mm 0.00 in0.0 mm
07:25 PM 74.4°F23.6°C 68.2°F20.1°C 81% 7.0 mph E11.3 kmh E 11.0 mph17.7 kmh 30.32 in1026.8 mb 0.00 in0.0 mm 0.00 in0.0 mm 0.00 in0.0 mm
07:20 PM 74.5°F23.6°C 68.3°F20.2°C 81% Calm Calm 11.0 mph17.7 kmh 30.32 in1026.8 mb 0.00 in0.0 mm 0.00 in0.0 mm 0.00 in0.0 mm
07:15 PM 74.5°F23.6°C 68.3°F20.2°C 81% Calm Calm 11.0 mph17.7 kmh 30.31 in1026.4 mb 0.00 in0.0 mm 0.00 in0.0 mm 0.00 in0.0 mm
07:10 PM 74.7°F23.7°C 68.5°F20.3°C 81% Calm Calm 11.0 mph17.7 kmh 30.31 in1026.4 mb 0.00 in0.0 mm 0.00 in0.0 mm 0.00 in0.0 mm
07:05 PM 74.7°F23.7°C 68.5°F20.3°C 81% 8.0 mph E12.9 kmh E 11.0 mph17.7 kmh 30.31 in1026.4 mb 0.00 in0.0 mm 0.00 in0.0 mm 0.00 in0.0 mm
07:00 PM 74.8°F23.8°C 68.6°F20.3°C 81% 5.0 mph E8.0 kmh E 5.0 mph8.0 kmh 30.31 in1026.4 mb 0.00 in0.0 mm 0.00 in0.0 mm 0.00 in0.0 mm
06:55 PM 74.9°F23.8°C 68.7°F20.4°C 81% 4.0 mph ESE6.4 kmh ESE 13.0 mph20.9 kmh 30.31 in1026.4 mb 0.00 in0.0 mm 0.00 in0.0 mm 0.00 in0.0 mm
06:50 PM 74.8°F23.8°C 68.2°F20.1°C 80% 5.0 mph NE8.0 kmh NE 13.0 mph20.9 kmh 30.31 in1026.4 mb 0.00 in0.0 mm 0.00 in0.0 mm 0.00 in0.0 mm
06:45 PM 74.9°F23.8°C 68.3°F20.2°C 80% Calm Calm 13.0 mph20.9 kmh 30.31 in1026.4 mb 0.00 in0.0 mm 0.00 in0.0 mm 0.00 in0.0 mm
06:40 PM 74.9°F23.8°C 68.0°F20.0°C 79% 2.0 mph ESE3.2 kmh ESE 13.0 mph20.9 kmh 30.31 in1026.4 mb 0.00 in0.0 mm 0.00 in0.0 mm 0.00 in0.0 mm
06:35 PM 74.9°F23.8°C 67.6°F19.8°C 78% 3.0 mph ESE4.8 kmh ESE 13.0 mph20.9 kmh 30.31 in1026.4 mb 0.00 in0.0 mm 0.00 in0.0 mm 0.00 in0.0 mm
06:30 PM 75.0°F23.9°C 67.7°F19.8°C 78% Calm Calm 13.0 mph20.9 kmh 30.31 in1026.4 mb 0.00 in0.0 mm 0.00 in0.0 mm 0.00 in0.0 mm
06:25 PM 75.0°F23.9°C 67.7°F19.8°C 78% Calm Calm 13.0 mph20.9 kmh 30.31 in1026.4 mb 0.00 in0.0 mm 0.00 in0.0 mm 0.00 in0.0 mm
06:20 PM 75.1°F23.9°C 67.4°F19.7°C 77% 6.0 mph SE9.7 kmh SE 13.0 mph20.9 kmh 30.32 in1026.8 mb 0.00 in0.0 mm 0.00 in0.0 mm 0.00 in0.0 mm
06:15 PM 75.1°F23.9°C 67.8°F19.9°C 78% Calm Calm 8.0 mph12.9 kmh 30.32 in1026.8 mb 0.00 in0.0 mm 0.00 in0.0 mm 0.00 in0.0 mm
06:10 PM 75.2°F24.0°C 67.9°F19.9°C 78% Calm Calm 8.0 mph12.9 kmh 30.31 in1026.4 mb 0.00 in0.0 mm 0.00 in0.0 mm 0.00 in0.0 mm
06:05 PM 75.3°F24.1°C 67.6°F19.8°C 77% Calm Calm 8.0 mph12.9 kmh 30.32 in1026.8 mb 0.00 in0.0 mm 0.00 in0.0 mm 0.00 in0.0 mm
06:00 PM 75.3°F24.1°C 67.2°F19.6°C 76% Calm Calm -- 30.31 in1026.4 mb 0.00 in0.0 mm 0.00 in0.0 mm 0.00 in0.0 mm
05:55 PM 75.5°F24.2°C 67.0°F19.4°C 75% 6.0 mph ESE9.7 kmh ESE 14.0 mph22.5 kmh 30.32 in1026.8 mb 0.00 in0.0 mm 0.00 in0.0 mm 0.00 in0.0 mm
05:50 PM 75.6°F24.2°C 67.5°F19.7°C 76% 8.0 mph E12.9 kmh E 14.0 mph22.5 kmh 30.32 in1026.8 mb 0.00 in0.0 mm 0.00 in0.0 mm 0.00 in0.0 mm
05:45 PM 75.6°F24.2°C 67.5°F19.7°C 76% 11.0 mph ESE17.7 kmh ESE 14.0 mph22.5 kmh 30.32 in1026.8 mb 0.00 in0.0 mm 0.00 in0.0 mm 0.00 in0.0 mm
05:40 PM 75.6°F24.2°C 67.5°F19.7°C 76% Calm Calm 14.0 mph22.5 kmh 30.32 in1026.8 mb 0.00 in0.0 mm 0.00 in0.0 mm 0.00 in0.0 mm
05:35 PM 75.8°F24.3°C 67.7°F19.8°C 76% 2.0 mph ENE3.2 kmh ENE 14.0 mph22.5 kmh 30.32 in1026.8 mb 0.00 in0.0 mm 0.00 in0.0 mm 0.00 in0.0 mm
05:30 PM 75.9°F24.4°C 67.8°F19.9°C 76% 3.0 mph SE4.8 kmh SE 14.0 mph22.5 kmh 30.32 in1026.8 mb 0.00 in0.0 mm 0.00 in0.0 mm 0.00 in0.0 mm
05:25 PM 76.0°F24.4°C 67.9°F19.9°C 76% 6.0 mph ESE9.7 kmh ESE 14.0 mph22.5 kmh 30.31 in1026.4 mb 0.00 in0.0 mm 0.00 in0.0 mm 0.00 in0.0 mm
05:20 PM 76.1°F24.5°C 68.4°F20.2°C 77% 13.0 mph E20.9 kmh E 14.0 mph22.5 kmh 30.32 in1026.8 mb 0.00 in0.0 mm 0.00 in0.0 mm 0.00 in0.0 mm
05:15 PM 76.2°F24.6°C 68.1°F20.1°C 76% Calm Calm 13.0 mph20.9 kmh 30.32 in1026.8 mb 0.00 in0.0 mm 0.00 in0.0 mm 0.00 in0.0 mm
05:10 PM 76.6°F24.8°C 68.1°F20.1°C 75% 4.0 mph E6.4 kmh E 13.0 mph20.9 kmh 30.32 in1026.8 mb 0.00 in0.0 mm 0.00 in0.0 mm 0.00 in0.0 mm
05:05 PM 77.0°F25.0°C 68.5°F20.3°C 75% 6.0 mph ESE9.7 kmh ESE 13.0 mph20.9 kmh 30.31 in1026.4 mb 0.00 in0.0 mm 0.00 in0.0 mm 0.00 in0.0 mm
05:00 PM 77.3°F25.2°C 68.8°F20.4°C 75% 11.0 mph ESE17.7 kmh ESE 11.0 mph17.7 kmh 30.31 in1026.4 mb 0.00 in0.0 mm 0.00 in0.0 mm 0.00 in0.0 mm
04:55 PM 77.7°F25.4°C 68.4°F20.2°C 73% Calm Calm 13.0 mph20.9 kmh 30.31 in1026.4 mb 0.00 in0.0 mm 0.00 in0.0 mm 0.00 in0.0 mm
04:50 PM 78.1°F25.6°C 68.4°F20.2°C 72% 2.0 mph ENE3.2 kmh ENE 13.0 mph20.9 kmh 30.31 in1026.4 mb 0.00 in0.0 mm 0.00 in0.0 mm 0.00 in0.0 mm
04:45 PM 78.1°F25.6°C 68.4°F20.2°C 72% Calm Calm 13.0 mph20.9 kmh 30.32 in1026.8 mb 0.00 in0.0 mm 0.00 in0.0 mm 0.00 in0.0 mm
04:40 PM 77.9°F25.5°C 68.2°F20.1°C 72% 5.0 mph E8.0 kmh E 13.0 mph20.9 kmh 30.32 in1026.8 mb 0.00 in0.0 mm 0.00 in0.0 mm 0.00 in0.0 mm
04:35 PM 77.8°F25.4°C 67.7°F19.8°C 71% 11.0 mph ESE17.7 kmh ESE 12.0 mph19.3 kmh 30.32 in1026.8 mb 0.00 in0.0 mm 0.00 in0.0 mm 0.00 in0.0 mm
04:30 PM 77.9°F25.5°C 67.8°F19.9°C 71% Calm Calm 11.0 mph17.7 kmh 30.31 in1026.4 mb 0.00 in0.0 mm 0.00 in0.0 mm 0.00 in0.0 mm
04:25 PM 77.8°F25.4°C 67.7°F19.8°C 71% 2.0 mph E3.2 kmh E 11.0 mph17.7 kmh 30.32 in1026.8 mb 0.00 in0.0 mm 0.00 in0.0 mm 0.00 in0.0 mm
04:20 PM 77.7°F25.4°C 67.6°F19.8°C 71% 5.0 mph E8.0 kmh E 10.0 mph16.1 kmh 30.32 in1026.8 mb 0.00 in0.0 mm 0.00 in0.0 mm 0.00 in0.0 mm
04:15 PM 77.9°F25.5°C 67.8°F19.9°C 71% Calm Calm 10.0 mph16.1 kmh 30.32 in1026.8 mb 0.00 in0.0 mm 0.00 in0.0 mm 0.00 in0.0 mm
04:10 PM 77.8°F25.4°C 67.2°F19.6°C 70% Calm Calm 10.0 mph16.1 kmh 30.32 in1026.8 mb 0.00 in0.0 mm 0.00 in0.0 mm 0.00 in0.0 mm
04:05 PM 78.2°F25.7°C 67.6°F19.8°C 70% Calm Calm 10.0 mph16.1 kmh 30.31 in1026.4 mb 0.00 in0.0 mm 0.00 in0.0 mm 0.00 in0.0 mm
04:00 PM 78.2°F25.7°C 67.6°F19.8°C 70% 6.0 mph E9.7 kmh E 8.0 mph12.9 kmh 30.32 in1026.8 mb 0.00 in0.0 mm 0.00 in0.0 mm 0.00 in0.0 mm
03:55 PM 78.3°F25.7°C 67.7°F19.8°C 70% Calm Calm 14.0 mph22.5 kmh 30.32 in1026.8 mb 0.00 in0.0 mm 0.00 in0.0 mm 0.00 in0.0 mm
03:50 PM 78.2°F25.7°C 67.6°F19.8°C 70% 3.0 mph ENE4.8 kmh ENE 14.0 mph22.5 kmh 30.32 in1026.8 mb 0.00 in0.0 mm 0.00 in0.0 mm 0.00 in0.0 mm
03:45 PM 78.0°F25.6°C 67.4°F19.7°C 70% 9.0 mph E14.5 kmh E 14.0 mph22.5 kmh 30.32 in1026.8 mb 0.00 in0.0 mm 0.00 in0.0 mm 0.00 in0.0 mm
03:40 PM 77.8°F25.4°C 67.7°F19.8°C 71% 1.0 mph ESE1.6 kmh ESE 14.0 mph22.5 kmh 30.32 in1026.8 mb 0.00 in0.0 mm 0.00 in0.0 mm 0.00 in0.0 mm
03:35 PM 78.0°F25.6°C 67.4°F19.7°C 70% Calm Calm 13.0 mph20.9 kmh 30.32 in1026.8 mb 0.00 in0.0 mm 0.00 in0.0 mm 0.00 in0.0 mm
03:30 PM 78.2°F25.7°C 68.0°F20.0°C 71% Calm Calm 13.0 mph20.9 kmh 30.32 in1026.8 mb 0.00 in0.0 mm 0.00 in0.0 mm 0.00 in0.0 mm
03:25 PM 78.4°F25.8°C 68.6°F20.3°C 72% 3.0 mph E4.8 kmh E 13.0 mph20.9 kmh 30.32 in1026.8 mb 0.00 in0.0 mm 0.00 in0.0 mm 0.00 in0.0 mm
03:20 PM 78.5°F25.8°C 68.7°F20.4°C 72% Calm Calm 13.0 mph20.9 kmh 30.32 in1026.8 mb 0.00 in0.0 mm 0.00 in0.0 mm 0.00 in0.0 mm
03:15 PM 78.4°F25.8°C 69.0°F20.6°C 73% Calm Calm 13.0 mph20.9 kmh 30.32 in1026.8 mb 0.00 in0.0 mm 0.00 in0.0 mm 0.00 in0.0 mm
03:10 PM 78.5°F25.8°C 69.1°F20.6°C 73% 11.0 mph SE17.7 kmh SE 13.0 mph20.9 kmh 30.32 in1026.8 mb 0.00 in0.0 mm 0.00 in0.0 mm 0.00 in0.0 mm
03:05 PM 78.6°F25.9°C 68.8°F20.4°C 72% Calm Calm 13.0 mph20.9 kmh 30.32 in1026.8 mb 0.00 in0.0 mm 0.00 in0.0 mm 0.00 in0.0 mm
03:00 PM 78.8°F26.0°C 69.0°F20.6°C 72% 8.0 mph ESE12.9 kmh ESE 9.0 mph14.5 kmh 30.32 in1026.8 mb 0.00 in0.0 mm 0.00 in0.0 mm 0.00 in0.0 mm
02:55 PM 78.9°F26.1°C 69.1°F20.6°C 72% Calm Calm 16.0 mph25.7 kmh 30.32 in1026.8 mb 0.00 in0.0 mm 0.00 in0.0 mm 0.00 in0.0 mm
02:50 PM 79.0°F26.1°C 68.8°F20.4°C 71% 3.0 mph E4.8 kmh E 16.0 mph25.7 kmh 30.32 in1026.8 mb 0.00 in0.0 mm 0.00 in0.0 mm 0.00 in0.0 mm
02:45 PM 79.3°F26.3°C 68.3°F20.2°C 69% 3.0 mph SE4.8 kmh SE 16.0 mph25.7 kmh 30.33 in1027.1 mb 0.00 in0.0 mm 0.00 in0.0 mm 0.00 in0.0 mm
02:40 PM 79.8°F26.6°C 68.3°F20.2°C 68% 7.0 mph E11.3 kmh E 16.0 mph25.7 kmh 30.33 in1027.1 mb 0.00 in0.0 mm 0.00 in0.0 mm 0.00 in0.0 mm
02:35 PM 79.6°F26.4°C 68.5°F20.3°C 69% 1.0 mph SE1.6 kmh SE 16.0 mph25.7 kmh 30.33 in1027.1 mb 0.00 in0.0 mm 0.00 in0.0 mm 0.00 in0.0 mm
02:30 PM 79.4°F26.3°C 67.9°F19.9°C 68% 8.0 mph ESE12.9 kmh ESE 16.0 mph25.7 kmh 30.32 in1026.8 mb 0.00 in0.0 mm 0.00 in0.0 mm 0.00 in0.0 mm
02:25 PM 79.3°F26.3°C 68.3°F20.2°C 69% Calm Calm 16.0 mph25.7 kmh 30.33 in1027.1 mb 0.00 in0.0 mm 0.00 in0.0 mm 0.00 in0.0 mm
02:20 PM 79.2°F26.2°C 69.0°F20.6°C 71% Calm Calm 16.0 mph25.7 kmh 30.33 in1027.1 mb 0.00 in0.0 mm 0.00 in0.0 mm 0.00 in0.0 mm
02:15 PM 79.1°F26.2°C 68.9°F20.5°C 71% 3.0 mph E4.8 kmh E 16.0 mph25.7 kmh 30.32 in1026.8 mb 0.00 in0.0 mm 0.00 in0.0 mm 0.00 in0.0 mm
02:10 PM 79.4°F26.3°C 68.4°F20.2°C 69% 2.0 mph NE3.2 kmh NE 16.0 mph25.7 kmh 30.33 in1027.1 mb 0.00 in0.0 mm 0.00 in0.0 mm 0.00 in0.0 mm
02:05 PM 79.4°F26.3°C 68.8°F20.4°C 70% Calm Calm 16.0 mph25.7 kmh 30.33 in1027.1 mb 0.00 in0.0 mm 0.00 in0.0 mm 0.00 in0.0 mm
02:00 PM 79.4°F26.3°C 68.8°F20.4°C 70% 1.0 mph NE1.6 kmh NE 1.0 mph1.6 kmh 30.33 in1027.1 mb 0.00 in0.0 mm 0.00 in0.0 mm 0.00 in0.0 mm
01:55 PM 79.4°F26.3°C 68.8°F20.4°C 70% 5.0 mph E8.0 kmh E 16.0 mph25.7 kmh 30.33 in1027.1 mb 0.00 in0.0 mm 0.00 in0.0 mm 0.00 in0.0 mm
01:50 PM 79.3°F26.3°C 68.3°F20.2°C 69% Calm Calm 15.0 mph24.1 kmh 30.33 in1027.1 mb 0.00 in0.0 mm 0.00 in0.0 mm 0.00 in0.0 mm
01:45 PM 79.2°F26.2°C 68.6°F20.3°C 70% 2.0 mph E3.2 kmh E 15.0 mph24.1 kmh 30.34 in1027.4 mb 0.00 in0.0 mm 0.00 in0.0 mm 0.00 in0.0 mm
01:40 PM 79.1°F26.2°C 68.1°F20.1°C 69% 8.0 mph E12.9 kmh E 15.0 mph24.1 kmh 30.34 in1027.4 mb 0.00 in0.0 mm 0.00 in0.0 mm 0.00 in0.0 mm
01:35 PM 79.3°F26.3°C 67.8°F19.9°C 68% 3.0 mph E4.8 kmh E 15.0 mph24.1 kmh 30.34 in1027.4 mb 0.00 in0.0 mm 0.00 in0.0 mm 0.00 in0.0 mm
01:30 PM 79.3°F26.3°C 67.8°F19.9°C 68% 2.0 mph ESE3.2 kmh ESE 15.0 mph24.1 kmh 30.35 in1027.8 mb 0.00 in0.0 mm 0.00 in0.0 mm 0.00 in0.0 mm
01:25 PM 79.4°F26.3°C 67.9°F19.9°C 68% Calm Calm 15.0 mph24.1 kmh 30.36 in1028.1 mb 0.00 in0.0 mm 0.00 in0.0 mm 0.00 in0.0 mm
01:20 PM 79.6°F26.4°C 68.5°F20.3°C 69% 11.0 mph E17.7 kmh E 14.0 mph22.5 kmh 30.35 in1027.8 mb 0.00 in0.0 mm 0.00 in0.0 mm 0.00 in0.0 mm
01:15 PM 79.7°F26.5°C 68.2°F20.1°C 68% Calm Calm 14.0 mph22.5 kmh 30.36 in1028.1 mb 0.00 in0.0 mm 0.00 in0.0 mm 0.00 in0.0 mm
01:10 PM 79.8°F26.6°C 68.3°F20.2°C 68% 2.0 mph SE3.2 kmh SE 14.0 mph22.5 kmh 30.36 in1028.1 mb 0.00 in0.0 mm 0.00 in0.0 mm 0.00 in0.0 mm
01:05 PM 79.9°F26.6°C 68.4°F20.2°C 68% Calm Calm 12.0 mph19.3 kmh 30.36 in1028.1 mb 0.00 in0.0 mm 0.00 in0.0 mm 0.00 in0.0 mm
01:00 PM 79.8°F26.6°C 68.3°F20.2°C 68% 5.0 mph SE8.0 kmh SE 5.0 mph8.0 kmh 30.36 in1028.1 mb 0.00 in0.0 mm 0.00 in0.0 mm 0.00 in0.0 mm
12:55 PM 79.7°F26.5°C 68.6°F20.3°C 69% 6.0 mph ESE9.7 kmh ESE 19.0 mph30.6 kmh 30.36 in1028.1 mb 0.00 in0.0 mm 0.00 in0.0 mm 0.00 in0.0 mm
12:50 PM 79.6°F26.4°C 68.1°F20.1°C 68% Calm Calm 19.0 mph30.6 kmh 30.37 in1028.4 mb 0.00 in0.0 mm 0.00 in0.0 mm 0.00 in0.0 mm
12:45 PM 79.7°F26.5°C 68.6°F20.3°C 69% 7.0 mph ESE11.3 kmh ESE 19.0 mph30.6 kmh 30.37 in1028.4 mb 0.00 in0.0 mm 0.00 in0.0 mm 0.00 in0.0 mm
12:40 PM 79.7°F26.5°C 68.6°F20.3°C 69% 3.0 mph ESE4.8 kmh ESE 19.0 mph30.6 kmh 30.37 in1028.4 mb 0.00 in0.0 mm 0.00 in0.0 mm 0.00 in0.0 mm
12:35 PM 80.0°F26.7°C 68.9°F20.5°C 69% 13.0 mph SE20.9 kmh SE 19.0 mph30.6 kmh 30.37 in1028.4 mb 0.00 in0.0 mm 0.00 in0.0 mm 0.00 in0.0 mm
12:30 PM 79.9°F26.6°C 69.3°F20.7°C 70% 4.0 mph ESE6.4 kmh ESE 19.0 mph30.6 kmh 30.36 in1028.1 mb 0.00 in0.0 mm 0.00 in0.0 mm 0.00 in0.0 mm
12:25 PM 79.6°F26.4°C 69.4°F20.8°C 71% Calm Calm 19.0 mph30.6 kmh 30.37 in1028.4 mb 0.00 in0.0 mm 0.00 in0.0 mm 0.00 in0.0 mm
12:20 PM 79.9°F26.6°C 68.8°F20.4°C 69% Calm Calm 19.0 mph30.6 kmh 30.38 in1028.8 mb 0.00 in0.0 mm 0.00 in0.0 mm 0.00 in0.0 mm
12:15 PM 80.1°F26.7°C 69.0°F20.6°C 69% 11.0 mph E17.7 kmh E 19.0 mph30.6 kmh 30.39 in1029.1 mb 0.00 in0.0 mm 0.00 in0.0 mm 0.00 in0.0 mm
12:10 PM 80.2°F26.8°C 69.5°F20.8°C 70% Calm Calm 19.0 mph30.6 kmh 30.38 in1028.8 mb 0.00 in0.0 mm 0.00 in0.0 mm 0.00 in0.0 mm
12:05 PM 80.4°F26.9°C 68.9°F20.5°C 68% 6.0 mph ESE9.7 kmh ESE 19.0 mph30.6 kmh 30.38 in1028.8 mb 0.00 in0.0 mm 0.00 in0.0 mm 0.00 in0.0 mm
12:00 PM 80.4°F26.9°C 69.7°F20.9°C 70% 16.0 mph ESE25.7 kmh ESE 19.0 mph30.6 kmh 30.39 in1029.1 mb 0.00 in0.0 mm 0.00 in0.0 mm 0.00 in0.0 mm
11:55 AM 80.3°F26.8°C 69.2°F20.7°C 69% 9.0 mph ESE14.5 kmh ESE 18.0 mph29.0 kmh 30.39 in1029.1 mb 0.00 in0.0 mm 0.00 in0.0 mm 0.00 in0.0 mm
11:50 AM 80.2°F26.8°C 70.0°F21.1°C 71% Calm Calm 18.0 mph29.0 kmh 30.39 in1029.1 mb 0.00 in0.0 mm 0.00 in0.0 mm 0.00 in0.0 mm
11:45 AM 79.9°F26.6°C 69.3°F20.7°C 70% Calm Calm 18.0 mph29.0 kmh 30.39 in1029.1 mb 0.00 in0.0 mm 0.00 in0.0 mm 0.00 in0.0 mm
11:40 AM 79.6°F26.4°C 69.4°F20.8°C 71% Calm Calm 18.0 mph29.0 kmh 30.39 in1029.1 mb 0.00 in0.0 mm 0.00 in0.0 mm 0.00 in0.0 mm
11:35 AM 79.6°F26.4°C 69.0°F20.6°C 70% 2.0 mph ENE3.2 kmh ENE 17.0 mph27.4 kmh 30.39 in1029.1 mb 0.00 in0.0 mm 0.00 in0.0 mm 0.00 in0.0 mm
11:30 AM 79.4°F26.3°C 68.4°F20.2°C 69% 5.0 mph SE8.0 kmh SE 17.0 mph27.4 kmh 30.39 in1029.1 mb 0.00 in0.0 mm 0.00 in0.0 mm 0.00 in0.0 mm
11:25 AM 79.4°F26.3°C 68.8°F20.4°C 70% 3.0 mph E4.8 kmh E 17.0 mph27.4 kmh 30.39 in1029.1 mb 0.00 in0.0 mm 0.00 in0.0 mm 0.00 in0.0 mm
11:20 AM 79.3°F26.3°C 69.1°F20.6°C 71% Calm Calm 15.0 mph24.1 kmh 30.39 in1029.1 mb 0.00 in0.0 mm 0.00 in0.0 mm 0.00 in0.0 mm
11:15 AM 79.4°F26.3°C 69.6°F20.9°C 72% 6.0 mph E9.7 kmh E 15.0 mph24.1 kmh 30.39 in1029.1 mb 0.00 in0.0 mm 0.00 in0.0 mm 0.00 in0.0 mm
11:10 AM 79.3°F26.3°C 69.5°F20.8°C 72% Calm Calm 13.0 mph20.9 kmh 30.40 in1029.5 mb 0.00 in0.0 mm 0.00 in0.0 mm 0.00 in0.0 mm
11:05 AM 79.2°F26.2°C 69.8°F21.0°C 73% 3.0 mph ESE4.8 kmh ESE 13.0 mph20.9 kmh 30.40 in1029.5 mb 0.00 in0.0 mm 0.00 in0.0 mm 0.00 in0.0 mm
11:00 AM 79.1°F26.2°C 69.7°F20.9°C 73% 1.0 mph SSW1.6 kmh SSW 5.0 mph8.0 kmh 30.40 in1029.5 mb 0.00 in0.0 mm 0.00 in0.0 mm 0.00 in0.0 mm
10:55 AM 79.1°F26.2°C 70.5°F21.4°C 75% 4.0 mph E6.4 kmh E 17.0 mph27.4 kmh 30.40 in1029.5 mb 0.00 in0.0 mm 0.00 in0.0 mm 0.00 in0.0 mm
10:50 AM 79.1°F26.2°C 70.1°F21.2°C 74% 13.0 mph ESE20.9 kmh ESE 17.0 mph27.4 kmh 30.40 in1029.5 mb 0.00 in0.0 mm 0.00 in0.0 mm 0.00 in0.0 mm
10:45 AM 78.9°F26.1°C 70.3°F21.3°C 75% 8.0 mph SE12.9 kmh SE 17.0 mph27.4 kmh 30.40 in1029.5 mb 0.00 in0.0 mm 0.00 in0.0 mm 0.00 in0.0 mm
10:40 AM 78.7°F25.9°C 69.7°F20.9°C 74% Calm Calm 17.0 mph27.4 kmh 30.40 in1029.5 mb 0.00 in0.0 mm 0.00 in0.0 mm 0.00 in0.0 mm
10:35 AM 78.6°F25.9°C 69.6°F20.9°C 74% 2.0 mph ESE3.2 kmh ESE 17.0 mph27.4 kmh 30.41 in1029.8 mb 0.00 in0.0 mm 0.00 in0.0 mm 0.00 in0.0 mm
10:30 AM 78.5°F25.8°C 71.1°F21.7°C 78% Calm Calm 17.0 mph27.4 kmh 30.40 in1029.5 mb 0.00 in0.0 mm 0.00 in0.0 mm 0.00 in0.0 mm
10:25 AM 78.2°F25.7°C 70.0°F21.1°C 76% 7.0 mph E11.3 kmh E 17.0 mph27.4 kmh 30.40 in1029.5 mb 0.00 in0.0 mm 0.00 in0.0 mm 0.00 in0.0 mm
10:20 AM 77.9°F25.5°C 69.3°F20.7°C 75% 3.0 mph SE4.8 kmh SE 17.0 mph27.4 kmh 30.40 in1029.5 mb 0.00 in0.0 mm 0.00 in0.0 mm 0.00 in0.0 mm
10:15 AM 77.8°F25.4°C 69.6°F20.9°C 76% 3.0 mph SE4.8 kmh SE 17.0 mph27.4 kmh 30.40 in1029.5 mb 0.00 in0.0 mm 0.00 in0.0 mm 0.00 in0.0 mm
10:10 AM 77.8°F25.4°C 69.3°F20.7°C 75% 1.0 mph SE1.6 kmh SE 17.0 mph27.4 kmh 30.41 in1029.8 mb 0.00 in0.0 mm 0.00 in0.0 mm 0.00 in0.0 mm
10:05 AM 77.8°F25.4°C 69.3°F20.7°C 75% 10.0 mph E16.1 kmh E 15.0 mph24.1 kmh 30.40 in1029.5 mb 0.00 in0.0 mm 0.00 in0.0 mm 0.00 in0.0 mm
10:00 AM 77.8°F25.4°C 68.9°F20.5°C 74% 4.0 mph SE6.4 kmh SE 6.0 mph9.7 kmh 30.40 in1029.5 mb 0.00 in0.0 mm 0.00 in0.0 mm 0.00 in0.0 mm
09:55 AM 77.7°F25.4°C 69.2°F20.7°C 75% 11.0 mph ESE17.7 kmh ESE 16.0 mph25.7 kmh 30.40 in1029.5 mb 0.00 in0.0 mm 0.00 in0.0 mm 0.00 in0.0 mm
09:50 AM 77.6°F25.3°C 68.7°F20.4°C 74% 8.0 mph ESE12.9 kmh ESE 16.0 mph25.7 kmh 30.40 in1029.5 mb 0.00 in0.0 mm 0.00 in0.0 mm 0.00 in0.0 mm
09:45 AM 77.4°F25.2°C 68.9°F20.5°C 75% 11.0 mph E17.7 kmh E 16.0 mph25.7 kmh 30.40 in1029.5 mb 0.00 in0.0 mm 0.00 in0.0 mm 0.00 in0.0 mm
09:40 AM 77.4°F25.2°C 69.3°F20.7°C 76% 8.0 mph ESE12.9 kmh ESE 16.0 mph25.7 kmh 30.40 in1029.5 mb 0.00 in0.0 mm 0.00 in0.0 mm 0.00 in0.0 mm
09:35 AM 77.4°F25.2°C 68.9°F20.5°C 75% 9.0 mph SE14.5 kmh SE 16.0 mph25.7 kmh 30.40 in1029.5 mb 0.00 in0.0 mm 0.00 in0.0 mm 0.00 in0.0 mm
09:30 AM 77.3°F25.2°C 69.2°F20.7°C 76% 15.0 mph ESE24.1 kmh ESE 16.0 mph25.7 kmh 30.40 in1029.5 mb 0.00 in0.0 mm 0.00 in0.0 mm 0.00 in0.0 mm
09:25 AM 77.2°F25.1°C 69.1°F20.6°C 76% 5.0 mph E8.0 kmh E 16.0 mph25.7 kmh 30.39 in1029.1 mb 0.00 in0.0 mm 0.00 in0.0 mm 0.00 in0.0 mm
09:20 AM 77.1°F25.1°C 69.3°F20.7°C 77% 11.0 mph ESE17.7 kmh ESE 16.0 mph25.7 kmh 30.40 in1029.5 mb 0.00 in0.0 mm 0.00 in0.0 mm 0.00 in0.0 mm
09:15 AM 77.0°F25.0°C 69.2°F20.7°C 77% Calm Calm 15.0 mph24.1 kmh 30.39 in1029.1 mb 0.00 in0.0 mm 0.00 in0.0 mm 0.00 in0.0 mm
09:10 AM 76.8°F24.9°C 69.1°F20.6°C 77% 3.0 mph ESE4.8 kmh ESE 15.0 mph24.1 kmh 30.39 in1029.1 mb 0.00 in0.0 mm 0.00 in0.0 mm 0.00 in0.0 mm
09:05 AM 76.6°F24.8°C 68.5°F20.3°C 76% 10.0 mph ESE16.1 kmh ESE 15.0 mph24.1 kmh 30.39 in1029.1 mb 0.00 in0.0 mm 0.00 in0.0 mm 0.00 in0.0 mm
09:00 AM 76.4°F24.7°C 68.7°F20.4°C 77% 9.0 mph SE14.5 kmh SE 11.0 mph17.7 kmh 30.38 in1028.8 mb 0.00 in0.0 mm 0.00 in0.0 mm 0.00 in0.0 mm
08:55 AM 76.3°F24.6°C 69.3°F20.7°C 79% 7.0 mph E11.3 kmh E 16.0 mph25.7 kmh 30.38 in1028.8 mb 0.00 in0.0 mm 0.00 in0.0 mm 0.00 in0.0 mm
08:50 AM 76.2°F24.6°C 69.6°F20.9°C 80% 5.0 mph ESE8.0 kmh ESE 16.0 mph25.7 kmh 30.38 in1028.8 mb 0.00 in0.0 mm 0.00 in0.0 mm 0.00 in0.0 mm
08:45 AM 75.9°F24.4°C 69.7°F20.9°C 81% Calm Calm 16.0 mph25.7 kmh 30.38 in1028.8 mb 0.00 in0.0 mm 0.00 in0.0 mm 0.00 in0.0 mm
08:40 AM 75.4°F24.1°C 69.5°F20.8°C 82% Calm Calm 16.0 mph25.7 kmh 30.38 in1028.8 mb 0.00 in0.0 mm 0.00 in0.0 mm 0.00 in0.0 mm
08:35 AM 75.0°F23.9°C 68.8°F20.4°C 81% Calm Calm 16.0 mph25.7 kmh 30.37 in1028.4 mb 0.00 in0.0 mm 0.00 in0.0 mm 0.00 in0.0 mm
08:30 AM 74.5°F23.6°C 68.7°F20.4°C 82% 7.0 mph ESE11.3 kmh ESE 16.0 mph25.7 kmh 30.38 in1028.8 mb 0.00 in0.0 mm 0.00 in0.0 mm 0.00 in0.0 mm
08:25 AM 74.1°F23.4°C 68.6°F20.3°C 83% 1.0 mph ESE1.6 kmh ESE 16.0 mph25.7 kmh 30.37 in1028.4 mb 0.00 in0.0 mm 0.00 in0.0 mm 0.00 in0.0 mm
08:20 AM 73.8°F23.2°C 68.3°F20.2°C 83% 6.0 mph ESE9.7 kmh ESE 16.0 mph25.7 kmh 30.37 in1028.4 mb 0.00 in0.0 mm 0.00 in0.0 mm 0.00 in0.0 mm
08:15 AM 73.5°F23.1°C 68.0°F20.0°C 83% Calm Calm 16.0 mph25.7 kmh 30.38 in1028.8 mb 0.00 in0.0 mm 0.00 in0.0 mm 0.00 in0.0 mm
08:10 AM 73.3°F22.9°C 67.5°F19.7°C 82% 5.0 mph SE8.0 kmh SE 16.0 mph25.7 kmh 30.37 in1028.4 mb 0.00 in0.0 mm 0.00 in0.0 mm 0.00 in0.0 mm
08:05 AM 73.3°F22.9°C 68.2°F20.1°C 84% Calm Calm 15.0 mph24.1 kmh 30.37 in1028.4 mb 0.00 in0.0 mm 0.00 in0.0 mm 0.00 in0.0 mm
08:00 AM 73.3°F22.9°C 68.2°F20.1°C 84% 6.0 mph ESE9.7 kmh ESE 9.0 mph14.5 kmh 30.37 in1028.4 mb 0.00 in0.0 mm 0.00 in0.0 mm 0.00 in0.0 mm
07:55 AM 73.3°F22.9°C 68.5°F20.3°C 85% 4.0 mph SE6.4 kmh SE 13.0 mph20.9 kmh 30.37 in1028.4 mb 0.00 in0.0 mm 0.00 in0.0 mm 0.00 in0.0 mm
07:50 AM 73.2°F22.9°C 68.4°F20.2°C 85% 2.0 mph S3.2 kmh S 13.0 mph20.9 kmh 30.37 in1028.4 mb 0.00 in0.0 mm 0.00 in0.0 mm 0.00 in0.0 mm
07:45 AM 73.1°F22.8°C 68.3°F20.2°C 85% 2.0 mph ESE3.2 kmh ESE 13.0 mph20.9 kmh 30.36 in1028.1 mb 0.00 in0.0 mm 0.00 in0.0 mm 0.00 in0.0 mm
07:40 AM 73.0°F22.8°C 68.2°F20.1°C 85% 6.0 mph SE9.7 kmh SE 13.0 mph20.9 kmh 30.37 in1028.4 mb 0.00 in0.0 mm 0.00 in0.0 mm 0.00 in0.0 mm
07:35 AM 72.9°F22.7°C 67.8°F19.9°C 84% 2.0 mph SE3.2 kmh SE 13.0 mph20.9 kmh 30.37 in1028.4 mb 0.00 in0.0 mm 0.00 in0.0 mm 0.00 in0.0 mm
07:30 AM 72.9°F22.7°C 68.1°F20.1°C 85% 3.0 mph SE4.8 kmh SE 13.0 mph20.9 kmh 30.37 in1028.4 mb 0.00 in0.0 mm 0.00 in0.0 mm 0.00 in0.0 mm
07:25 AM 72.9°F22.7°C 68.1°F20.1°C 85% 6.0 mph E9.7 kmh E 13.0 mph20.9 kmh 30.37 in1028.4 mb 0.00 in0.0 mm 0.00 in0.0 mm 0.00 in0.0 mm
07:20 AM 73.0°F22.8°C 68.6°F20.3°C 86% 5.0 mph SE8.0 kmh SE 13.0 mph20.9 kmh 30.37 in1028.4 mb 0.00 in0.0 mm 0.00 in0.0 mm 0.00 in0.0 mm
07:15 AM 73.1°F22.8°C 68.7°F20.4°C 86% 5.0 mph ESE8.0 kmh ESE 13.0 mph20.9 kmh 30.36 in1028.1 mb 0.00 in0.0 mm 0.00 in0.0 mm 0.00 in0.0 mm
07:10 AM 73.2°F22.9°C 68.8°F20.4°C 86% Calm Calm 8.0 mph12.9 kmh 30.37 in1028.4 mb 0.00 in0.0 mm 0.00 in0.0 mm 0.00 in0.0 mm
07:05 AM 73.2°F22.9°C 68.8°F20.4°C 86% 4.0 mph SSE6.4 kmh SSE 4.0 mph6.4 kmh 30.36 in1028.1 mb 0.00 in0.0 mm 0.00 in0.0 mm 0.00 in0.0 mm
07:00 AM 73.1°F22.8°C 68.7°F20.4°C 86% Calm Calm -- 30.37 in1028.4 mb 0.00 in0.0 mm 0.00 in0.0 mm 0.00 in0.0 mm
06:55 AM 73.1°F22.8°C 68.7°F20.4°C 86% 3.0 mph E4.8 kmh E 13.0 mph20.9 kmh 30.36 in1028.1 mb 0.00 in0.0 mm 0.00 in0.0 mm 0.00 in0.0 mm
06:50 AM 73.0°F22.8°C 68.6°F20.3°C 86% 3.0 mph ESE4.8 kmh ESE 13.0 mph20.9 kmh 30.36 in1028.1 mb 0.00 in0.0 mm 0.00 in0.0 mm 0.00 in0.0 mm
06:45 AM 72.8°F22.7°C 68.4°F20.2°C 86% 9.0 mph SE14.5 kmh SE 12.0 mph19.3 kmh 30.36 in1028.1 mb 0.00 in0.0 mm 0.00 in0.0 mm 0.00 in0.0 mm
06:40 AM 72.6°F22.6°C 67.8°F19.9°C 85% 1.0 mph E1.6 kmh E 12.0 mph19.3 kmh 30.36 in1028.1 mb 0.00 in0.0 mm 0.00 in0.0 mm 0.00 in0.0 mm
06:35 AM 72.5°F22.5°C 67.4°F19.7°C 84% 4.0 mph ESE6.4 kmh ESE 12.0 mph19.3 kmh 30.36 in1028.1 mb 0.00 in0.0 mm 0.00 in0.0 mm 0.00 in0.0 mm
06:30 AM 72.6°F22.6°C 67.5°F19.7°C 84% Calm Calm 12.0 mph19.3 kmh 30.36 in1028.1 mb 0.00 in0.0 mm 0.00 in0.0 mm 0.00 in0.0 mm
06:25 AM 72.6°F22.6°C 67.8°F19.9°C 85% 6.0 mph ESE9.7 kmh ESE 12.0 mph19.3 kmh 30.35 in1027.8 mb 0.00 in0.0 mm 0.00 in0.0 mm 0.00 in0.0 mm
06:20 AM 72.7°F22.6°C 67.9°F19.9°C 85% 4.0 mph SE6.4 kmh SE 12.0 mph19.3 kmh 30.35 in1027.8 mb 0.00 in0.0 mm 0.00 in0.0 mm 0.00 in0.0 mm
06:15 AM 72.8°F22.7°C 68.0°F20.0°C 85% 5.0 mph ESE8.0 kmh ESE 12.0 mph19.3 kmh 30.36 in1028.1 mb 0.00 in0.0 mm 0.00 in0.0 mm 0.00 in0.0 mm
06:10 AM 73.0°F22.8°C 68.6°F20.3°C 86% 5.0 mph ESE8.0 kmh ESE 9.0 mph14.5 kmh 30.35 in1027.8 mb 0.00 in0.0 mm 0.00 in0.0 mm 0.00 in0.0 mm
06:05 AM 73.0°F22.8°C 68.6°F20.3°C 86% Calm Calm 9.0 mph14.5 kmh 30.35 in1027.8 mb 0.00 in0.0 mm 0.00 in0.0 mm 0.00 in0.0 mm
06:00 AM 73.0°F22.8°C 68.6°F20.3°C 86% 4.0 mph E6.4 kmh E 4.0 mph6.4 kmh 30.35 in1027.8 mb 0.00 in0.0 mm 0.00 in0.0 mm 0.00 in0.0 mm
05:55 AM 72.9°F22.7°C 68.5°F20.3°C 86% 7.0 mph E11.3 kmh E 9.0 mph14.5 kmh 30.35 in1027.8 mb 0.00 in0.0 mm 0.00 in0.0 mm 0.00 in0.0 mm
05:50 AM 72.8°F22.7°C 68.4°F20.2°C 86% 5.0 mph E8.0 kmh E 8.0 mph12.9 kmh 30.34 in1027.4 mb 0.00 in0.0 mm 0.00 in0.0 mm 0.00 in0.0 mm
05:45 AM 72.8°F22.7°C 68.4°F20.2°C 86% 3.0 mph ESE4.8 kmh ESE 8.0 mph12.9 kmh 30.34 in1027.4 mb 0.00 in0.0 mm 0.00 in0.0 mm 0.00 in0.0 mm
05:40 AM 72.8°F22.7°C 68.4°F20.2°C 86% 3.0 mph ESE4.8 kmh ESE 7.0 mph11.3 kmh 30.34 in1027.4 mb 0.00 in0.0 mm 0.00 in0.0 mm 0.00 in0.0 mm
05:35 AM 72.8°F22.7°C 68.4°F20.2°C 86% Calm Calm 7.0 mph11.3 kmh 30.35 in1027.8 mb 0.00 in0.0 mm 0.00 in0.0 mm 0.00 in0.0 mm
05:30 AM 72.9°F22.7°C 68.5°F20.3°C 86% Calm Calm 7.0 mph11.3 kmh 30.35 in1027.8 mb 0.00 in0.0 mm 0.00 in0.0 mm 0.00 in0.0 mm
05:25 AM 72.9°F22.7°C 68.5°F20.3°C 86% Calm Calm 7.0 mph11.3 kmh 30.35 in1027.8 mb 0.00 in0.0 mm 0.00 in0.0 mm 0.00 in0.0 mm
05:20 AM 72.9°F22.7°C 68.1°F20.1°C 85% Calm Calm 7.0 mph11.3 kmh 30.34 in1027.4 mb 0.00 in0.0 mm 0.00 in0.0 mm 0.00 in0.0 mm
05:15 AM 72.9°F22.7°C 68.5°F20.3°C 86% Calm Calm 7.0 mph11.3 kmh 30.34 in1027.4 mb 0.00 in0.0 mm 0.00 in0.0 mm 0.00 in0.0 mm
05:10 AM 72.9°F22.7°C 68.1°F20.1°C 85% Calm Calm 7.0 mph11.3 kmh 30.34 in1027.4 mb 0.00 in0.0 mm 0.00 in0.0 mm 0.00 in0.0 mm
05:05 AM 72.9°F22.7°C 68.1°F20.1°C 85% Calm Calm 7.0 mph11.3 kmh 30.34 in1027.4 mb 0.00 in0.0 mm 0.00 in0.0 mm 0.00 in0.0 mm
05:00 AM 72.9°F22.7°C 68.1°F20.1°C 85% Calm Calm -- 30.34 in1027.4 mb 0.00 in0.0 mm 0.00 in0.0 mm 0.00 in0.0 mm
04:55 AM 72.9°F22.7°C 68.1°F20.1°C 85% Calm Calm 10.0 mph16.1 kmh 30.34 in1027.4 mb 0.00 in0.0 mm 0.00 in0.0 mm 0.00 in0.0 mm
04:50 AM 72.9°F22.7°C 68.1°F20.1°C 85% Calm Calm 10.0 mph16.1 kmh 30.34 in1027.4 mb 0.00 in0.0 mm 0.00 in0.0 mm 0.00 in0.0 mm
04:45 AM 72.9°F22.7°C 68.1°F20.1°C 85% Calm Calm 10.0 mph16.1 kmh 30.34 in1027.4 mb 0.00 in0.0 mm 0.00 in0.0 mm 0.00 in0.0 mm
04:40 AM 72.8°F22.7°C 68.0°F20.0°C 85% Calm Calm 10.0 mph16.1 kmh 30.34 in1027.4 mb 0.00 in0.0 mm 0.00 in0.0 mm 0.00 in0.0 mm
04:35 AM 72.8°F22.7°C 68.0°F20.0°C 85% Calm Calm 10.0 mph16.1 kmh 30.34 in1027.4 mb 0.00 in0.0 mm 0.00 in0.0 mm 0.00 in0.0 mm
04:30 AM 72.8°F22.7°C 68.0°F20.0°C 85% Calm Calm 10.0 mph16.1 kmh 30.34 in1027.4 mb 0.00 in0.0 mm 0.00 in0.0 mm 0.00 in0.0 mm
04:25 AM 72.8°F22.7°C 68.0°F20.0°C 85% Calm Calm 10.0 mph16.1 kmh 30.34 in1027.4 mb 0.00 in0.0 mm 0.00 in0.0 mm 0.00 in0.0 mm
04:20 AM 72.8°F22.7°C 68.4°F20.2°C 86% 4.0 mph E6.4 kmh E 10.0 mph16.1 kmh 30.33 in1027.1 mb 0.00 in0.0 mm 0.00 in0.0 mm 0.00 in0.0 mm
04:15 AM 72.8°F22.7°C 68.4°F20.2°C 86% Calm Calm 9.0 mph14.5 kmh 30.34 in1027.4 mb 0.00 in0.0 mm 0.00 in0.0 mm 0.00 in0.0 mm
04:10 AM 72.8°F22.7°C 68.4°F20.2°C 86% 3.0 mph ESE4.8 kmh ESE 9.0 mph14.5 kmh 30.33 in1027.1 mb 0.00 in0.0 mm 0.00 in0.0 mm 0.00 in0.0 mm
04:05 AM 72.7°F22.6°C 68.3°F20.2°C 86% 9.0 mph ESE14.5 kmh ESE 9.0 mph14.5 kmh 30.34 in1027.4 mb 0.00 in0.0 mm 0.00 in0.0 mm 0.00 in0.0 mm
04:00 AM 72.8°F22.7°C 68.4°F20.2°C 86% Calm Calm 2.0 mph3.2 kmh 30.34 in1027.4 mb 0.00 in0.0 mm 0.00 in0.0 mm 0.00 in0.0 mm
03:55 AM 72.8°F22.7°C 68.7°F20.4°C 87% 4.0 mph ESE6.4 kmh ESE 8.0 mph12.9 kmh 30.34 in1027.4 mb 0.00 in0.0 mm 0.00 in0.0 mm 0.00 in0.0 mm
03:50 AM 72.8°F22.7°C 68.7°F20.4°C 87% 3.0 mph E4.8 kmh E 8.0 mph12.9 kmh 30.34 in1027.4 mb 0.00 in0.0 mm 0.00 in0.0 mm 0.00 in0.0 mm
03:45 AM 72.9°F22.7°C 68.8°F20.4°C 87% Calm Calm 8.0 mph12.9 kmh 30.34 in1027.4 mb 0.00 in0.0 mm 0.00 in0.0 mm 0.00 in0.0 mm
03:40 AM 72.9°F22.7°C 68.8°F20.4°C 87% Calm Calm 8.0 mph12.9 kmh 30.34 in1027.4 mb 0.00 in0.0 mm 0.00 in0.0 mm 0.00 in0.0 mm
03:35 AM 73.0°F22.8°C 68.9°F20.5°C 87% Calm Calm 8.0 mph12.9 kmh 30.34 in1027.4 mb 0.00 in0.0 mm 0.00 in0.0 mm 0.00 in0.0 mm
03:30 AM 73.0°F22.8°C 68.9°F20.5°C 87% 4.0 mph SE6.4 kmh SE 6.0 mph9.7 kmh 30.35 in1027.8 mb 0.00 in0.0 mm 0.00 in0.0 mm 0.00 in0.0 mm
03:25 AM 73.0°F22.8°C 68.9°F20.5°C 87% 4.0 mph ESE6.4 kmh ESE 6.0 mph9.7 kmh 30.34 in1027.4 mb 0.00 in0.0 mm 0.00 in0.0 mm 0.00 in0.0 mm
03:20 AM 73.0°F22.8°C 68.9°F20.5°C 87% 6.0 mph E9.7 kmh E 6.0 mph9.7 kmh 30.35 in1027.8 mb 0.00 in0.0 mm 0.00 in0.0 mm 0.00 in0.0 mm
03:15 AM 73.0°F22.8°C 68.9°F20.5°C 87% Calm Calm 5.0 mph8.0 kmh 30.35 in1027.8 mb 0.00 in0.0 mm 0.00 in0.0 mm 0.00 in0.0 mm
03:10 AM 73.0°F22.8°C 68.9°F20.5°C 87% Calm Calm -- 30.35 in1027.8 mb 0.00 in0.0 mm 0.00 in0.0 mm 0.00 in0.0 mm
03:05 AM 73.0°F22.8°C 68.9°F20.5°C 87% Calm Calm -- 30.35 in1027.8 mb 0.00 in0.0 mm 0.00 in0.0 mm 0.00 in0.0 mm
03:00 AM 73.1°F22.8°C 69.0°F20.6°C 87% Calm Calm -- 30.35 in1027.8 mb 0.00 in0.0 mm 0.00 in0.0 mm 0.00 in0.0 mm
02:55 AM 73.1°F22.8°C 69.0°F20.6°C 87% Calm Calm 6.0 mph9.7 kmh 30.34 in1027.4 mb 0.00 in0.0 mm 0.00 in0.0 mm 0.00 in0.0 mm
02:50 AM 73.1°F22.8°C 69.0°F20.6°C 87% Calm Calm 6.0 mph9.7 kmh 30.34 in1027.4 mb 0.00 in0.0 mm 0.00 in0.0 mm 0.00 in0.0 mm
02:45 AM 73.1°F22.8°C 69.0°F20.6°C 87% Calm Calm 6.0 mph9.7 kmh 30.35 in1027.8 mb 0.00 in0.0 mm 0.00 in0.0 mm 0.00 in0.0 mm
02:40 AM 73.1°F22.8°C 69.0°F20.6°C 87% 3.0 mph SE4.8 kmh SE 6.0 mph9.7 kmh 30.34 in1027.4 mb 0.00 in0.0 mm 0.00 in0.0 mm 0.00 in0.0 mm
02:35 AM 73.1°F22.8°C 69.0°F20.6°C 87% Calm Calm 5.0 mph8.0 kmh 30.35 in1027.8 mb 0.00 in0.0 mm 0.00 in0.0 mm 0.00 in0.0 mm
02:30 AM 73.1°F22.8°C 69.0°F20.6°C 87% Calm Calm 5.0 mph8.0 kmh 30.35 in1027.8 mb 0.00 in0.0 mm 0.00 in0.0 mm 0.00 in0.0 mm
02:25 AM 73.0°F22.8°C 68.9°F20.5°C 87% 2.0 mph SE3.2 kmh SE 4.0 mph6.4 kmh 30.35 in1027.8 mb 0.00 in0.0 mm 0.00 in0.0 mm 0.00 in0.0 mm
02:20 AM 72.9°F22.7°C 68.8°F20.4°C 87% Calm Calm 2.0 mph3.2 kmh 30.35 in1027.8 mb 0.00 in0.0 mm 0.00 in0.0 mm 0.00 in0.0 mm
02:15 AM 72.9°F22.7°C 68.5°F20.3°C 86% Calm Calm -- 30.36 in1028.1 mb 0.00 in0.0 mm 0.00 in0.0 mm 0.00 in0.0 mm
02:10 AM 72.8°F22.7°C 68.7°F20.4°C 87% Calm Calm -- 30.35 in1027.8 mb 0.00 in0.0 mm 0.00 in0.0 mm 0.00 in0.0 mm
02:05 AM 72.8°F22.7°C 68.4°F20.2°C 86% Calm Calm -- 30.35 in1027.8 mb 0.00 in0.0 mm 0.00 in0.0 mm 0.00 in0.0 mm
02:00 AM 72.8°F22.7°C 68.4°F20.2°C 86% Calm Calm -- 30.36 in1028.1 mb 0.00 in0.0 mm 0.00 in0.0 mm 0.00 in0.0 mm
01:55 AM 72.8°F22.7°C 68.4°F20.2°C 86% Calm Calm 16.0 mph25.7 kmh 30.35 in1027.8 mb 0.00 in0.0 mm 0.00 in0.0 mm 0.00 in0.0 mm
01:50 AM 72.8°F22.7°C 68.4°F20.2°C 86% Calm Calm 16.0 mph25.7 kmh 30.36 in1028.1 mb 0.00 in0.0 mm 0.00 in0.0 mm 0.00 in0.0 mm
01:45 AM 72.8°F22.7°C 68.4°F20.2°C 86% Calm Calm 16.0 mph25.7 kmh 30.35 in1027.8 mb 0.00 in0.0 mm 0.00 in0.0 mm 0.00 in0.0 mm
01:40 AM 72.8°F22.7°C 68.4°F20.2°C 86% Calm Calm 16.0 mph25.7 kmh 30.35 in1027.8 mb 0.00 in0.0 mm 0.00 in0.0 mm 0.00 in0.0 mm
01:35 AM 72.7°F22.6°C 68.3°F20.2°C 86% Calm Calm 16.0 mph25.7 kmh 30.35 in1027.8 mb 0.00 in0.0 mm 0.00 in0.0 mm 0.00 in0.0 mm
01:30 AM 72.7°F22.6°C 68.3°F20.2°C 86% 3.0 mph SSE4.8 kmh SSE 16.0 mph25.7 kmh 30.36 in1028.1 mb 0.00 in0.0 mm 0.00 in0.0 mm 0.00 in0.0 mm
01:25 AM 72.6°F22.6°C 67.8°F19.9°C 85% Calm Calm 16.0 mph25.7 kmh 30.37 in1028.4 mb 0.00 in0.0 mm 0.00 in0.0 mm 0.00 in0.0 mm
01:20 AM 72.7°F22.6°C 67.9°F19.9°C 85% Calm Calm 16.0 mph25.7 kmh 30.36 in1028.1 mb 0.00 in0.0 mm 0.00 in0.0 mm 0.00 in0.0 mm
01:15 AM 73.0°F22.8°C 68.2°F20.1°C 85% 2.0 mph ESE3.2 kmh ESE 16.0 mph25.7 kmh 30.36 in1028.1 mb 0.00 in0.0 mm 0.00 in0.0 mm 0.00 in0.0 mm
01:10 AM 73.3°F22.9°C 69.2°F20.7°C 87% 7.0 mph ESE11.3 kmh ESE 16.0 mph25.7 kmh 30.36 in1028.1 mb 0.00 in0.0 mm 0.00 in0.0 mm 0.00 in0.0 mm
01:05 AM 73.3°F22.9°C 69.2°F20.7°C 87% 10.0 mph ESE16.1 kmh ESE 16.0 mph25.7 kmh 30.36 in1028.1 mb 0.00 in0.0 mm 0.00 in0.0 mm 0.00 in0.0 mm
01:00 AM 73.2°F22.9°C 69.1°F20.6°C 87% 4.0 mph ESE6.4 kmh ESE 5.0 mph8.0 kmh 30.36 in1028.1 mb 0.00 in0.0 mm 0.00 in0.0 mm 0.00 in0.0 mm
12:55 AM 73.2°F22.9°C 68.8°F20.4°C 86% 3.0 mph SE4.8 kmh SE 8.0 mph12.9 kmh 30.36 in1028.1 mb 0.00 in0.0 mm 0.00 in0.0 mm 0.00 in0.0 mm
12:50 AM 73.1°F22.8°C 69.0°F20.6°C 87% 2.0 mph ESE3.2 kmh ESE 8.0 mph12.9 kmh 30.36 in1028.1 mb 0.00 in0.0 mm 0.00 in0.0 mm 0.00 in0.0 mm
12:45 AM 73.1°F22.8°C 69.0°F20.6°C 87% Calm Calm 8.0 mph12.9 kmh 30.36 in1028.1 mb 0.00 in0.0 mm 0.00 in0.0 mm 0.00 in0.0 mm
12:40 AM 73.1°F22.8°C 68.7°F20.4°C 86% Calm Calm 8.0 mph12.9 kmh 30.36 in1028.1 mb 0.00 in0.0 mm 0.00 in0.0 mm 0.00 in0.0 mm
12:35 AM 73.1°F22.8°C 68.7°F20.4°C 86% Calm Calm 8.0 mph12.9 kmh 30.36 in1028.1 mb 0.00 in0.0 mm 0.00 in0.0 mm 0.00 in0.0 mm
12:30 AM 73.2°F22.9°C 69.1°F20.6°C 87% Calm Calm 8.0 mph12.9 kmh 30.36 in1028.1 mb 0.00 in0.0 mm 0.00 in0.0 mm 0.00 in0.0 mm
12:25 AM 73.2°F22.9°C 69.1°F20.6°C 87% Calm Calm 8.0 mph12.9 kmh 30.37 in1028.4 mb 0.00 in0.0 mm 0.00 in0.0 mm 0.00 in0.0 mm
12:20 AM 73.3°F22.9°C 69.2°F20.7°C 87% Calm Calm 8.0 mph12.9 kmh 30.37 in1028.4 mb 0.00 in0.0 mm 0.00 in0.0 mm 0.00 in0.0 mm
12:15 AM 73.3°F22.9°C 69.2°F20.7°C 87% 2.0 mph SE3.2 kmh SE 8.0 mph12.9 kmh 30.36 in1028.1 mb 0.00 in0.0 mm 0.00 in0.0 mm 0.00 in0.0 mm
12:10 AM 73.4°F23.0°C 69.3°F20.7°C 87% Calm Calm 8.0 mph12.9 kmh 30.37 in1028.4 mb 0.00 in0.0 mm 0.00 in0.0 mm 0.00 in0.0 mm
12:05 AM 73.4°F23.0°C 69.6°F20.9°C 88% Calm Calm -- 30.37 in1028.4 mb 0.00 in0.0 mm 0.00 in0.0 mm 0.00 in0.0 mm
12:00 AM 73.4°F23.0°C 69.3°F20.7°C 87% Calm Calm -- 30.37 in1028.4 mb 0.00 in0.0 mm 0.00 in0.0 mm 0.00 in0.0 mm